Time;durP1;ratioP1;P1;durP2;ratioP2;P2;SDS_P1;SDS_P2;PMS_P1;PMS_P2;Temp;Humidity;BMP_temperature;BMP_pressure;BME280_temperature;BME280_humidity;BME280_pressure;Samples;Min_cycle;Max_cycle;Signal;HPM_P1;HPM_P2
2023/03/08 00:01:43;;;;;;;;;;;;;;;-1.63;100.00;100057.19;5003858;28;20071;-71
2023/03/08 00:04:08;;;;;;;;;;;;;;;-1.62;100.00;100056.28;5015850;28;20325;-71
2023/03/08 00:06:34;;;;;;;;;;;;;;;-1.57;100.00;100053.44;5004884;28;19921;-71
2023/03/08 00:09:00;;;;;;;;;;;;;;;-1.60;100.00;100062.34;5006573;28;19991;-71
2023/03/08 00:11:26;;;;;;;;;;;;;;;-1.64;100.00;100059.91;5004443;28;19921;-71
2023/03/08 00:13:51;;;;;;;;;;;;;;;-1.66;100.00;100062.56;5006631;28;19944;-71
2023/03/08 00:16:16;;;;;;;;;;;;;;;-1.68;100.00;100064.41;5003993;28;19918;-71
2023/03/08 00:18:41;;;;;;;;;;;;;;;-1.75;100.00;100068.22;5011796;28;20447;-71
2023/03/08 00:21:08;;;;;;;;;;;;;;;-1.71;100.00;100061.88;5005475;28;19921;-71
2023/03/08 00:23:33;;;;;;;;;;;;;;;-1.68;100.00;100059.13;5006045;28;19921;-71
2023/03/08 00:25:59;;;;;;;;;;;;;;;-1.63;100.00;100054.56;5007159;28;20696;-71
2023/03/08 00:28:24;;;;;;;;;;;;;;;-1.62;100.00;100058.06;5006878;28;20012;-71
2023/03/08 00:30:57;;;;;;;;;;;;;;;-1.60;100.00;100061.50;5005325;28;19921;-71
2023/03/08 00:33:22;;;;;;;;;;;;;;;-1.61;100.00;100054.50;5006239;28;20371;-71
2023/03/08 00:35:54;;;;;;;;;;;;;;;-1.59;100.00;100056.16;5020028;28;20268;-71
2023/03/08 00:38:19;;;;;;;;;;;;;;;-1.59;100.00;100040.34;5004935;28;19976;-71
2023/03/08 00:40:45;;;;;;;;;;;;;;;-1.63;100.00;100049.28;5009539;28;20139;-71
2023/03/08 00:43:10;;;;;;;;;;;;;;;-1.68;100.00;100051.25;5005717;28;19925;-71
2023/03/08 00:45:35;;;;;;;;;;;;;;;-1.67;100.00;100051.19;4988470;28;19925;-71
2023/03/08 00:48:00;;;;;;;;;;;;;;;-1.68;100.00;100040.72;5018713;28;19967;-71
2023/03/08 00:50:25;;;;;;;;;;;;;;;-1.68;100.00;100043.34;5020103;28;19967;-71
2023/03/08 00:52:51;;;;;;;;;;;;;;;-1.64;100.00;100046.72;5004061;28;19921;-71
2023/03/08 00:55:16;;;;;;;;;;;;;;;-1.66;100.00;100045.03;5003807;28;19925;-71
2023/03/08 00:57:41;;;;;;;;;;;;;;;-1.63;100.00;100049.28;5003399;28;20691;-71
2023/03/08 01:00:10;;;;;;;;;;;;;;;-1.70;100.00;100053.06;5017728;28;20008;-71
2023/03/08 01:02:35;;;;;;;;;;;;;;;-1.72;100.00;100041.78;4999703;28;19931;-72
2023/03/08 01:05:00;;;;;;;;;;;;;;;-1.84;100.00;100015.00;4999928;28;20170;-71
2023/03/08 01:07:27;;;;;;;;;;;;;;;-1.69;100.00;100031.09;5016397;28;19925;-71
2023/03/08 01:09:54;;;;;;;;;;;;;;;-1.70;100.00;100024.13;5015184;28;20323;-71
2023/03/08 01:12:21;;;;;;;;;;;;;;;-1.71;100.00;100028.53;5017290;28;20056;-71
2023/03/08 01:14:46;;;;;;;;;;;;;;;-1.71;100.00;100028.53;5016413;28;19967;-71
2023/03/08 01:17:11;;;;;;;;;;;;;;;-1.72;100.00;100026.00;5016355;28;19929;-71
2023/03/08 01:19:37;;;;;;;;;;;;;;;-1.77;100.00;100025.31;4997273;28;19925;-71
2023/03/08 01:22:02;;;;;;;;;;;;;;;-1.78;100.00;100016.53;4999041;28;19922;-71
2023/03/08 01:24:27;;;;;;;;;;;;;;;-1.70;100.00;100021.50;4999653;28;19928;-71
2023/03/08 01:26:54;;;;;;;;;;;;;;;-1.77;100.00;100015.63;5014881;28;19976;-71
2023/03/08 01:29:19;;;;;;;;;;;;;;;-1.63;100.00;100011.59;5014506;28;19922;-70
2023/03/08 01:31:45;;;;;;;;;;;;;;;-1.70;100.00;100005.69;4999165;28;19932;-70
2023/03/08 01:34:10;;;;;;;;;;;;;;;-1.59;100.00;100000.88;5015152;28;19981;-71
2023/03/08 01:36:35;;;;;;;;;;;;;;;-1.57;100.00;99995.53;5014520;28;19929;-71
2023/03/08 01:39:00;;;;;;;;;;;;;;;-1.63;100.00;99991.38;5016784;28;20372;-71
2023/03/08 01:41:27;;;;;;;;;;;;;;;-1.67;100.00;99989.78;4982950;28;20615;-71
2023/03/08 01:43:52;;;;;;;;;;;;;;;-1.68;100.00;99990.69;5015268;28;19925;-71
2023/03/08 01:46:27;;;;;;;;;;;;;;;-1.69;100.00;99986.34;5016574;28;19937;-71
2023/03/08 01:49:04;;;;;;;;;;;;;;;-1.60;100.00;99974.63;4998974;28;19932;-71
2023/03/08 01:51:29;;;;;;;;;;;;;;;-1.54;100.00;99976.97;4981791;28;19933;-71
2023/03/08 01:53:54;;;;;;;;;;;;;;;-1.59;100.00;99979.81;5015131;28;19997;-71
2023/03/08 01:56:19;;;;;;;;;;;;;;;-1.62;100.00;99972.03;4998672;28;20363;-71
2023/03/08 01:58:45;;;;;;;;;;;;;;;-1.63;100.00;99970.31;5015948;28;20383;-71
2023/03/08 02:01:10;;;;;;;;;;;;;;;-1.63;100.00;99962.41;5001410;28;19917;-71
2023/03/08 02:03:35;;;;;;;;;;;;;;;-1.62;100.00;99958.88;5014113;28;19964;-71
2023/03/08 02:06:01;;;;;;;;;;;;;;;-1.61;100.00;99950.06;5018794;28;20021;-71
2023/03/08 02:08:27;;;;;;;;;;;;;;;-1.59;100.00;99958.75;5018767;28;19925;-71
2023/03/08 02:10:52;;;;;;;;;;;;;;;-1.58;100.00;99954.31;5001360;28;19928;-70
2023/03/08 02:13:17;;;;;;;;;;;;;;;-1.58;100.00;99947.31;5003907;28;19921;-70
2023/03/08 02:15:43;;;;;;;;;;;;;;;-1.56;100.00;99953.34;5003182;28;19981;-70
2023/03/08 02:18:08;;;;;;;;;;;;;;;-1.53;100.00;99944.47;5021315;28;20398;-71
2023/03/08 02:20:37;;;;;;;;;;;;;;;-1.50;100.00;99944.34;5003961;28;19924;-71
2023/03/08 02:23:28;;;;;;;;;;;;;;;-1.42;100.00;99942.25;5003229;28;20327;-71
2023/03/08 02:25:55;;;;;;;;;;;;;;;-1.47;100.00;99936.31;5003371;28;20016;-70
2023/03/08 02:28:20;;;;;;;;;;;;;;;-1.53;100.00;99931.28;5004842;28;19921;-71
2023/03/08 02:30:46;;;;;;;;;;;;;;;-1.51;100.00;99929.47;5007979;28;19928;-71
2023/03/08 02:33:11;;;;;;;;;;;;;;;-1.48;100.00;99924.06;5005040;28;19963;-71
2023/03/08 02:35:37;;;;;;;;;;;;;;;-1.44;100.00;99917.75;5001147;28;19957;-71
2023/03/08 02:38:02;;;;;;;;;;;;;;;-1.38;100.00;99914.00;5002357;28;20588;-71
2023/03/08 02:40:27;;;;;;;;;;;;;;;-1.40;100.00;99915.84;5016436;28;20371;-71
2023/03/08 02:42:55;;;;;;;;;;;;;;;-1.38;100.00;99919.25;4997939;28;19928;-71
2023/03/08 02:45:20;;;;;;;;;;;;;;;-1.31;100.00;99918.09;4998406;28;20371;-70
2023/03/08 02:47:45;;;;;;;;;;;;;;;-1.29;100.00;99910.97;5000323;28;20530;-71
2023/03/08 02:50:10;;;;;;;;;;;;;;;-1.29;100.00;99912.72;4998682;28;19924;-71
2023/03/08 02:52:36;;;;;;;;;;;;;;;-1.33;100.00;99914.66;4998942;28;19932;-71
2023/03/08 02:55:01;;;;;;;;;;;;;;;-1.27;100.00;99909.13;5000083;28;19925;-71
2023/03/08 02:57:26;;;;;;;;;;;;;;;-1.22;100.00;99901.88;4999424;28;20380;-71
2023/03/08 02:59:51;;;;;;;;;;;;;;;-1.17;100.00;99890.25;5000121;28;20279;-71
2023/03/08 03:02:16;;;;;;;;;;;;;;;-1.17;100.00;99890.25;4998694;28;20801;-71
2023/03/08 03:04:42;;;;;;;;;;;;;;;-1.14;100.00;99891.00;5000388;28;20372;-70
2023/03/08 03:07:07;;;;;;;;;;;;;;;-1.16;100.00;99890.22;4997533;28;20427;-71
2023/03/08 03:09:33;;;;;;;;;;;;;;;-1.21;100.00;99903.59;5013956;28;19943;-70
2023/03/08 03:11:58;;;;;;;;;;;;;;;-1.25;100.00;99895.88;5007426;28;20323;-71
2023/03/08 03:14:26;;;;;;;;;;;;;;;-1.20;100.00;99896.53;5003227;28;19965;-71
2023/03/08 03:16:51;;;;;;;;;;;;;;;-1.15;100.00;99897.19;5001458;28;20443;-71
2023/03/08 03:19:16;;;;;;;;;;;;;;;-1.09;100.00;99896.94;5003940;28;19965;-70
2023/03/08 03:21:41;;;;;;;;;;;;;;;-1.03;100.00;99893.16;4999310;28;20020;-71
2023/03/08 03:24:06;;;;;;;;;;;;;;;-0.98;100.00;99893.81;4999109;28;20177;-70
2023/03/08 03:26:32;;;;;;;;;;;;;;;-0.94;100.00;99894.50;5016871;28;20435;-71
2023/03/08 03:28:57;;;;;;;;;;;;;;;-0.87;100.00;99882.78;5011972;28;20024;-71
2023/03/08 03:31:23;;;;;;;;;;;;;;;-0.80;100.00;99875.44;4999552;28;19922;-71
2023/03/08 03:33:48;;;;;;;;;;;;;;;-0.82;100.00;99878.16;5012796;28;20395;-71
2023/03/08 03:36:14;;;;;;;;;;;;;;;-0.84;100.00;99866.81;4997880;28;19932;-71
2023/03/08 03:38:40;;;;;;;;;;;;;;;-0.87;100.00;99872.22;4997630;28;19925;-71
2023/03/08 03:41:06;;;;;;;;;;;;;;;-0.84;100.00;99871.22;4999019;28;19967;-71
2023/03/08 03:43:31;;;;;;;;;;;;;;;-0.88;100.00;99859.97;5014430;28;19921;-71
2023/03/08 03:45:57;;;;;;;;;;;;;;;-0.81;100.00;99852.63;5015304;28;19921;-71
2023/03/08 03:48:22;;;;;;;;;;;;;;;-0.81;100.00;99836.81;4998593;28;20316;-71
2023/03/08 03:50:57;;;;;;;;;;;;;;;-0.78;100.00;99832.25;4997516;28;19922;-71
2023/03/08 03:53:22;;;;;;;;;;;;;;;-0.76;100.00;99821.66;5015928;28;19956;-71
2023/03/08 03:55:48;;;;;;;;;;;;;;;-0.73;100.00;99824.16;5017234;28;20020;-71
2023/03/08 03:58:13;;;;;;;;;;;;;;;-0.72;100.00;99825.84;5003846;28;19929;-70
2023/03/08 04:00:38;;;;;;;;;;;;;;;-0.68;100.00;99826.56;5002190;28;20228;-71
2023/03/08 04:03:03;;;;;;;;;;;;;;;-0.68;100.00;99834.47;5002957;28;20268;-71
2023/03/08 04:05:28;;;;;;;;;;;;;;;-0.65;100.00;99837.81;5002109;28;20600;-71
2023/03/08 04:07:54;;;;;;;;;;;;;;;-0.61;100.00;99827.97;5006582;28;20345;-71
2023/03/08 04:10:19;;;;;;;;;;;;;;;-0.57;100.00;99821.66;5005563;28;19925;-71
2023/03/08 04:12:47;;;;;;;;;;;;;;;-0.54;100.00;99820.63;5003540;28;20372;-71
2023/03/08 04:15:12;;;;;;;;;;;;;;;-0.53;100.00;99828.44;5002793;28;20024;-71
2023/03/08 04:17:37;;;;;;;;;;;;;;;-0.55;100.00;99821.56;5002995;28;19926;-71
2023/03/08 04:20:04;;;;;;;;;;;;;;;-0.50;100.00;99819.56;4997966;28;19979;-72
2023/03/08 04:22:29;;;;;;;;;;;;;;;-0.48;100.00;99809.78;5001288;28;21039;-71
2023/03/08 04:24:55;;;;;;;;;;;;;;;-0.45;100.00;99799.09;5003272;28;19929;-71
2023/03/08 04:27:20;;;;;;;;;;;;;;;-0.45;100.00;99793.81;5017786;28;20353;-71
2023/03/08 04:29:45;;;;;;;;;;;;;;;-0.48;100.00;99786.06;4999335;28;19937;-71
2023/03/08 04:32:10;;;;;;;;;;;;;;;-0.51;100.00;99787.03;5001520;28;19928;-71
2023/03/08 04:34:35;;;;;;;;;;;;;;;-0.51;100.00;99796.75;5002930;28;19983;-71
2023/03/08 04:37:01;;;;;;;;;;;;;;;-0.44;100.00;99789.38;5003437;28;20013;-71
2023/03/08 04:39:26;;;;;;;;;;;;;;;-0.44;100.00;99789.38;5000468;28;19925;-71
2023/03/08 04:41:51;;;;;;;;;;;;;;;-0.44;100.00;99782.34;5016591;28;19960;-71
2023/03/08 04:44:16;;;;;;;;;;;;;;;-0.39;100.00;99776.84;5002203;28;20016;-71
2023/03/08 04:46:41;;;;;;;;;;;;;;;-0.42;100.00;99779.63;5014658;28;19983;-71
2023/03/08 04:49:07;;;;;;;;;;;;;;;-0.43;100.00;99772.63;5001644;28;20048;-71
2023/03/08 04:51:32;;;;;;;;;;;;;;;-0.43;100.00;99764.72;5015292;28;20403;-71
2023/03/08 04:53:57;;;;;;;;;;;;;;;-0.43;100.00;99764.72;5017644;28;20694;-71
2023/03/08 04:56:22;;;;;;;;;;;;;;;-0.47;100.00;99751.69;5016405;28;19925;-71
2023/03/08 04:58:48;;;;;;;;;;;;;;;-0.38;100.00;99749.53;5014517;28;19955;-71
2023/03/08 05:01:14;;;;;;;;;;;;;;;-0.33;100.00;99750.16;4991577;28;20044;-71
2023/03/08 05:03:39;;;;;;;;;;;;;;;-0.40;100.00;99741.72;4999633;28;19922;-71
2023/03/08 05:06:05;;;;;;;;;;;;;;;-0.38;100.00;99739.81;5014551;28;19921;-70
2023/03/08 05:08:30;;;;;;;;;;;;;;;-0.38;100.00;99728.44;5019422;28;19921;-71
2023/03/08 05:10:56;;;;;;;;;;;;;;;-0.43;100.00;99727.81;5003255;28;19964;-71
2023/03/08 05:13:22;;;;;;;;;;;;;;;-0.38;100.00;99713.44;5014087;28;20048;-71
2023/03/08 05:15:47;;;;;;;;;;;;;;;-0.36;100.00;99711.59;5015702;28;20471;-71
2023/03/08 05:18:12;;;;;;;;;;;;;;;-0.38;100.00;99710.81;5024281;28;19928;-70
2023/03/08 05:20:38;;;;;;;;;;;;;;;-0.38;100.00;99702.06;5004418;28;20456;-71
2023/03/08 05:23:03;;;;;;;;;;;;;;;-0.42;100.00;99695.22;5006998;28;19918;-71
2023/03/08 05:25:29;;;;;;;;;;;;;;;-0.40;100.00;99707.41;5017926;28;20020;-71
2023/03/08 05:27:55;;;;;;;;;;;;;;;-0.37;100.00;99703.75;5006623;28;19926;-71
2023/03/08 05:30:20;;;;;;;;;;;;;;;-0.41;100.00;99687.25;5002279;28;19928;-71
2023/03/08 05:32:45;;;;;;;;;;;;;;;-0.40;100.00;99682.81;5006758;28;20565;-71
2023/03/08 05:35:10;;;;;;;;;;;;;;;-0.38;100.00;99681.78;5005915;28;20249;-71
2023/03/08 05:37:35;;;;;;;;;;;;;;;-0.47;100.00;99674.38;5007293;28;20572;-71
2023/03/08 05:40:04;;;;;;;;;;;;;;;-0.41;100.00;99667.91;5005034;28;20441;-71
2023/03/08 05:42:30;;;;;;;;;;;;;;;-0.41;100.00;99660.88;5020256;28;19940;-71
2023/03/08 05:44:55;;;;;;;;;;;;;;;-0.31;100.00;99669.16;5006695;28;19921;-71
2023/03/08 05:47:20;;;;;;;;;;;;;;;-0.32;100.00;99668.28;5006249;28;19965;-71
2023/03/08 05:49:45;;;;;;;;;;;;;;;-0.32;100.00;99654.28;5004308;28;20032;-71
2023/03/08 05:52:11;;;;;;;;;;;;;;;-0.35;100.00;99650.00;5005389;28;19924;-71
2023/03/08 05:54:38;;;;;;;;;;;;;;;-0.34;100.00;99643.78;5019720;28;19921;-71
2023/03/08 05:57:03;;;;;;;;;;;;;;;-0.36;100.00;99642.16;5002677;28;19968;-71
2023/03/08 05:59:28;;;;;;;;;;;;;;;-0.44;100.00;99632.03;5001374;28;19918;-71
2023/03/08 06:01:54;;;;;;;;;;;;;;;-0.38;100.00;99629.03;5004989;28;19921;-72
2023/03/08 06:04:19;;;;;;;;;;;;;;;-0.40;100.00;99622.16;5003417;28;20069;-72
2023/03/08 06:06:44;;;;;;;;;;;;;;;-0.35;100.00;99617.50;5002666;28;20018;-71
2023/03/08 06:09:09;;;;;;;;;;;;;;;-0.35;100.00;99612.22;5017796;28;20047;-72
2023/03/08 06:11:34;;;;;;;;;;;;;;;-0.37;100.00;99608.81;5018649;28;20036;-72
2023/03/08 06:14:00;;;;;;;;;;;;;;;-0.37;100.00;99607.00;5014210;28;20287;-72
2023/03/08 06:16:25;;;;;;;;;;;;;;;-0.33;100.00;99611.19;5004677;28;20447;-72
2023/03/08 06:18:50;;;;;;;;;;;;;;;-0.39;100.00;99608.03;5004153;28;19944;-72
2023/03/08 06:21:16;;;;;;;;;;;;;;;-0.39;100.00;99602.75;5004054;28;20380;-71
2023/03/08 06:23:42;;;;;;;;;;;;;;;-0.33;100.00;99602.44;5004372;28;19921;-71
2023/03/08 06:26:07;;;;;;;;;;;;;;;-0.31;100.00;99597.94;4991590;28;19929;-72
2023/03/08 06:28:33;;;;;;;;;;;;;;;-0.28;100.00;99603.06;5005715;28;19925;-71
2023/03/08 06:30:58;;;;;;;;;;;;;;;-0.28;100.00;99602.19;5018778;28;20016;-72
2023/03/08 06:33:24;;;;;;;;;;;;;;;-0.37;100.00;99603.53;5004181;28;19917;-71
2023/03/08 06:35:59;;;;;;;;;;;;;;;-0.33;100.00;99598.00;5004286;28;20423;-72
2023/03/08 06:38:24;;;;;;;;;;;;;;;-0.33;100.00;99605.91;5005592;28;20360;-72
2023/03/08 06:40:50;;;;;;;;;;;;;;;-0.26;100.00;99608.25;4985765;28;20011;-72
2023/03/08 06:43:15;;;;;;;;;;;;;;;-0.27;100.00;99609.19;5005768;28;19918;-72
2023/03/08 06:45:40;;;;;;;;;;;;;;;-0.31;100.00;99600.59;5002505;28;19922;-72
2023/03/08 06:48:06;;;;;;;;;;;;;;;-0.25;100.00;99602.03;5019315;28;19931;-72
2023/03/08 06:50:31;;;;;;;;;;;;;;;-0.25;100.00;99596.75;5003803;28;19929;-72
2023/03/08 06:52:56;;;;;;;;;;;;;;;-0.27;100.00;99598.63;5019882;28;19921;-72
2023/03/08 06:55:21;;;;;;;;;;;;;;;-0.25;100.00;99602.88;5017784;28;20279;-72
2023/03/08 06:57:47;;;;;;;;;;;;;;;-0.28;100.00;99596.91;5019489;28;19936;-72
2023/03/08 07:00:12;;;;;;;;;;;;;;;-0.25;100.00;99600.25;5018047;28;20667;-72
2023/03/08 07:02:38;;;;;;;;;;;;;;;-0.30;100.00;99597.00;5005417;28;19925;-72
2023/03/08 07:05:03;;;;;;;;;;;;;;;-0.33;100.00;99587.47;5001906;28;20414;-72
2023/03/08 07:07:28;;;;;;;;;;;;;;;-0.22;100.00;99594.81;5017176;28;19921;-72
2023/03/08 07:09:53;;;;;;;;;;;;;;;-0.20;100.00;99589.47;5006535;28;19929;-72
2023/03/08 07:12:19;;;;;;;;;;;;;;;-0.26;100.00;99595.88;5013476;28;19944;-73
2023/03/08 07:14:44;;;;;;;;;;;;;;;-0.26;100.00;99587.97;5018147;28;20040;-72
2023/03/08 07:17:09;;;;;;;;;;;;;;;-0.22;100.00;99586.88;5002327;28;19930;-72
2023/03/08 07:19:34;;;;;;;;;;;;;;;-0.23;100.00;99594.91;5016011;28;19921;-72
2023/03/08 07:21:59;;;;;;;;;;;;;;;-0.26;100.00;99587.16;5019588;28;19925;-72
2023/03/08 07:24:25;;;;;;;;;;;;;;;-0.28;100.00;99594.28;5018439;28;19923;-71
2023/03/08 07:26:50;;;;;;;;;;;;;;;-0.27;100.00;99590.72;5019607;28;19925;-72
2023/03/08 07:29:15;;;;;;;;;;;;;;;-0.28;100.00;99591.66;5012383;28;20371;-72
2023/03/08 07:31:40;;;;;;;;;;;;;;;-0.27;100.00;99588.06;5000559;28;20386;-72
2023/03/08 07:34:06;;;;;;;;;;;;;;;-0.29;100.00;99566.19;5008860;28;20427;-72
2023/03/08 07:36:31;;;;;;;;;;;;;;;-0.24;100.00;99578.19;5012605;28;19975;-72
2023/03/08 07:38:56;;;;;;;;;;;;;;;-0.30;100.00;99578.56;4999584;28;19921;-72
2023/03/08 07:41:21;;;;;;;;;;;;;;;-0.24;100.00;99564.16;5015377;28;20346;-72
2023/03/08 07:43:47;;;;;;;;;;;;;;;-0.32;100.00;99567.22;5003879;28;20307;-72
2023/03/08 07:46:12;;;;;;;;;;;;;;;-0.22;100.00;99565.78;5016993;28;19921;-72
2023/03/08 07:48:37;;;;;;;;;;;;;;;-0.22;100.00;99563.16;5006278;28;19928;-72
2023/03/08 07:51:05;;;;;;;;;;;;;;;-0.20;100.00;99560.44;5024514;28;19921;-72
2023/03/08 07:53:30;;;;;;;;;;;;;;;-0.24;100.00;99548.34;5011992;28;20003;-73
2023/03/08 07:55:56;;;;;;;;;;;;;;;-0.29;100.00;99556.50;5021527;28;20387;-73
2023/03/08 07:58:21;;;;;;;;;;;;;;;-0.22;100.00;99563.16;4989666;28;19929;-72
2023/03/08 08:00:46;;;;;;;;;;;;;;;-0.28;100.00;99552.94;5004193;28;19921;-72
2023/03/08 08:03:11;;;;;;;;;;;;;;;-0.28;100.00;99550.31;5002594;28;19921;-72
2023/03/08 08:05:37;;;;;;;;;;;;;;;-0.25;100.00;99544.00;4988489;28;19960;-73
2023/03/08 08:08:02;;;;;;;;;;;;;;;-0.16;100.00;99544.34;5020238;28;20013;-72
2023/03/08 08:10:27;;;;;;;;;;;;;;;-0.22;100.00;99542.03;5004548;28;19997;-72
2023/03/08 08:12:53;;;;;;;;;;;;;;;-0.29;100.00;99538.06;5021610;28;19921;-72
2023/03/08 08:15:18;;;;;;;;;;;;;;;-0.22;100.00;99535.94;5005518;28;19921;-73
2023/03/08 08:17:43;;;;;;;;;;;;;;;-0.30;100.00;99533.72;5005329;28;19965;-73
2023/03/08 08:20:09;;;;;;;;;;;;;;;-0.27;100.00;99530.03;5005714;28;19953;-73
2023/03/08 08:22:35;;;;;;;;;;;;;;;-0.21;100.00;99540.28;5006499;28;20391;-72
2023/03/08 08:25:00;;;;;;;;;;;;;;;-0.14;100.00;99530.22;5006474;28;19922;-73
2023/03/08 08:27:26;;;;;;;;;;;;;;;-0.16;100.00;99535.59;5010587;28;19921;-73
2023/03/08 08:29:51;;;;;;;;;;;;;;;-0.17;100.00;99531.25;5004464;28;19925;-73
2023/03/08 08:32:16;;;;;;;;;;;;;;;-0.18;100.00;99527.75;5006694;28;19921;-73
2023/03/08 08:34:41;;;;;;;;;;;;;;;-0.26;100.00;99522.03;5019098;28;20295;-72
2023/03/08 08:37:06;;;;;;;;;;;;;;;-0.28;100.00;99521.28;5006589;28;19965;-73
2023/03/08 08:39:32;;;;;;;;;;;;;;;-0.43;100.00;99516.81;5003667;28;20052;-73
2023/03/08 08:41:57;;;;;;;;;;;;;;;-0.33;100.00;99515.41;5022923;28;19925;-73
2023/03/08 08:44:22;;;;;;;;;;;;;;;-0.30;100.00;99507.34;5007909;28;19922;-73
2023/03/08 08:46:47;;;;;;;;;;;;;;;-0.37;100.00;99501.50;5001255;28;19926;-72
2023/03/08 08:49:13;;;;;;;;;;;;;;;-0.38;100.00;99506.88;5017444;28;20004;-72
2023/03/08 08:51:38;;;;;;;;;;;;;;;-0.42;100.00;99500.94;5000416;28;20284;-72
2023/03/08 08:54:03;;;;;;;;;;;;;;;-0.41;100.00;99496.50;5005002;28;19964;-73
2023/03/08 08:56:29;;;;;;;;;;;;;;;-0.40;100.00;99496.44;5006725;28;19925;-73
2023/03/08 08:58:55;;;;;;;;;;;;;;;-0.35;100.00;99494.38;5004983;28;19925;-73
2023/03/08 09:01:21;;;;;;;;;;;;;;;-0.33;100.00;99491.66;5005622;28;20400;-73
2023/03/08 09:03:47;;;;;;;;;;;;;;;-0.34;100.00;99492.59;5005230;28;19929;-73
2023/03/08 09:06:12;;;;;;;;;;;;;;;-0.23;100.00;99495.50;5004591;28;20284;-73
2023/03/08 09:08:37;;;;;;;;;;;;;;;-0.27;100.00;99501.88;5003159;28;20032;-73
2023/03/08 09:11:04;;;;;;;;;;;;;;;-0.32;100.00;99494.22;5007602;28;19964;-73
2023/03/08 09:13:29;;;;;;;;;;;;;;;-0.28;100.00;99489.63;5005622;28;19925;-73
2023/03/08 09:15:54;;;;;;;;;;;;;;;-0.15;100.00;99487.19;5006194;28;20273;-73
2023/03/08 09:18:19;;;;;;;;;;;;;;;-0.18;100.00;99492.63;5004970;28;19965;-73
2023/03/08 09:20:45;;;;;;;;;;;;;;;-0.13;100.00;99489.72;5008695;28;20064;-73
2023/03/08 09:23:10;;;;;;;;;;;;;;;-0.16;100.00;99493.38;5005378;28;20310;-73
2023/03/08 09:25:35;;;;;;;;;;;;;;;-0.13;100.00;99487.91;5006364;28;20286;-73
2023/03/08 09:28:00;;;;;;;;;;;;;;;-0.16;100.00;99481.03;5016228;28;19925;-73
2023/03/08 09:30:25;;;;;;;;;;;;;;;-0.22;100.00;99464.69;5005130;28;19961;-73
2023/03/08 09:32:51;;;;;;;;;;;;;;;-0.15;100.00;99450.25;5007061;28;20063;-73
2023/03/08 09:35:16;;;;;;;;;;;;;;;-0.14;100.00;99454.59;5004300;28;20312;-72
2023/03/08 09:37:41;;;;;;;;;;;;;;;-0.21;100.00;99448.78;5006126;28;20279;-73
2023/03/08 09:40:10;;;;;;;;;;;;;;;-0.17;100.00;99452.09;5005773;28;20415;-73
2023/03/08 09:42:36;;;;;;;;;;;;;;;-0.03;100.00;99446.91;4991890;28;19957;-72
2023/03/08 09:45:01;;;;;;;;;;;;;;;0.00;100.00;99445.91;5004097;28;19960;-73
2023/03/08 09:47:26;;;;;;;;;;;;;;;0.01;100.00;99433.53;5003003;28;19929;-73
2023/03/08 09:49:52;;;;;;;;;;;;;;;0.22;100.00;99431.47;5004793;28;19961;-73
2023/03/08 09:52:23;;;;;;;;;;;;;;;0.21;100.00;99427.13;4995962;28;19925;-73
2023/03/08 09:54:49;;;;;;;;;;;;;;;0.18;100.00;99419.38;5002608;28;19992;-74
2023/03/08 09:57:24;;;;;;;;;;;;;;;0.22;100.00;99413.00;5000719;28;20371;-73
2023/03/08 09:59:53;;;;;;;;;;;;;;;0.24;100.00;99404.03;5000847;28;19921;-73
2023/03/08 10:02:19;;;;;;;;;;;;;;;0.47;100.00;99401.00;5021615;28;20056;-73
2023/03/08 10:05:04;;;;;;;;;;;;;;;0.69;100.00;99414.63;5006044;28;19925;-73
2023/03/08 10:07:48;;;;;;;;;;;;;;;0.87;100.00;99423.25;5000420;28;19928;-73
2023/03/08 10:10:22;;;;;;;;;;;;;;;0.96;100.00;99405.97;5001793;28;20454;-73
2023/03/08 10:12:48;;;;;;;;;;;;;;;1.23;100.00;99396.44;5005309;28;19925;-73
2023/03/08 10:15:13;;;;;;;;;;;;;;;1.08;100.00;99388.50;5005566;28;20160;-73
2023/03/08 10:17:49;;;;;;;;;;;;;;;1.10;100.00;99383.13;5006252;28;20016;-73
2023/03/08 10:20:24;;;;;;;;;;;;;;;1.18;100.00;99389.66;5016036;28;19980;-73
2023/03/08 10:22:57;;;;;;;;;;;;;;;1.53;100.00;99398.97;5026632;28;20011;-73
2023/03/08 10:25:30;;;;;;;;;;;;;;;1.63;100.00;99400.06;5009112;28;19917;-73
2023/03/08 10:28:14;;;;;;;;;;;;;;;1.75;100.00;99408.16;5006133;28;19921;-73
2023/03/08 10:30:41;;;;;;;;;;;;;;;1.65;100.00;99414.03;5004619;28;20396;-73
2023/03/08 10:33:07;;;;;;;;;;;;;;;1.60;100.00;99408.19;5027904;28;19971;-73
2023/03/08 10:35:38;;;;;;;;;;;;;;;1.63;100.00;99405.34;4999390;28;20281;-72
2023/03/08 10:38:04;;;;;;;;;;;;;;;1.54;100.00;99403.31;5017121;28;20466;-73
2023/03/08 10:40:29;;;;;;;;;;;;;;;1.44;100.00;99394.25;5004911;28;19925;-73
2023/03/08 10:42:59;;;;;;;;;;;;;;;1.55;100.00;99391.78;5007681;28;20368;-74
2023/03/08 10:45:26;;;;;;;;;;;;;;;1.76;100.00;99386.06;5005246;28;20372;-73
2023/03/08 10:47:52;;;;;;;;;;;;;;;2.04;100.00;99363.09;5020515;28;19972;-74
2023/03/08 10:50:19;;;;;;;;;;;;;;;2.42;100.00;99359.66;4999522;28;19955;-73
2023/03/08 10:52:45;;;;;;;;;;;;;;;1.72;100.00;99373.97;5005440;28;20436;-74
2023/03/08 10:55:11;;;;;;;;;;;;;;;1.76;100.00;99368.38;5002826;28;19971;-73
2023/03/08 10:57:37;;;;;;;;;;;;;;;1.52;100.00;99362.00;5003739;28;19929;-73
2023/03/08 11:00:21;;;;;;;;;;;;;;;1.47;100.00;99360.50;5000770;28;19921;-74
2023/03/08 11:02:47;;;;;;;;;;;;;;;1.63;100.00;99376.25;5002318;28;20119;-74
2023/03/08 11:05:25;;;;;;;;;;;;;;;1.71;100.00;99364.31;5016148;28;20366;-73
2023/03/08 11:07:51;;;;;;;;;;;;;;;1.67;100.00;99365.47;5000594;28;19921;-74
2023/03/08 11:10:18;;;;;;;;;;;;;;;1.64;100.00;99361.22;5001216;28;19921;-73
2023/03/08 11:12:43;;;;;;;;;;;;;;;1.62;100.00;99368.41;5003304;28;19921;-74
2023/03/08 11:15:15;;;;;;;;;;;;;;;1.61;100.00;99361.44;5000818;28;19925;-74
2023/03/08 11:17:48;;;;;;;;;;;;;;;1.40;100.00;99363.63;5016284;28;19931;-74
2023/03/08 11:20:25;;;;;;;;;;;;;;;1.25;100.00;99366.31;5003031;28;19921;-74
2023/03/08 11:23:09;;;;;;;;;;;;;;;1.32;100.00;99372.06;5019034;28;19964;-74
2023/03/08 11:25:41;;;;;;;;;;;;;;;1.26;100.00;99361.88;4998050;28;20007;-73
2023/03/08 11:28:09;;;;;;;;;;;;;;;1.08;100.00;99369.16;5002349;28;19925;-73
2023/03/08 11:30:34;;;;;;;;;;;;;;;1.07;100.00;99378.88;5002509;28;20008;-73
2023/03/08 11:33:05;;;;;;;;;;;;;;;1.08;100.00;99369.16;5005169;28;20050;-74
2023/03/08 11:35:36;;;;;;;;;;;;;;;1.15;100.00;99368.69;5003087;28;19932;-73
2023/03/08 11:38:17;;;;;;;;;;;;;;;1.07;100.00;99381.53;5004938;28;20376;-73
2023/03/08 11:40:54;;;;;;;;;;;;;;;1.00;100.00;99369.63;5001746;28;20279;-72
2023/03/08 11:43:20;;;;;;;;;;;;;;;1.06;100.00;99355.19;4999090;28;20012;-73
2023/03/08 11:45:48;;;;;;;;;;;;;;;1.19;100.00;99362.25;5005078;28;19955;-72
2023/03/08 11:48:16;;;;;;;;;;;;;;;1.14;100.00;99355.56;5020760;28;19925;-73
2023/03/08 11:51:00;;;;;;;;;;;;;;;1.25;100.00;99353.09;5002637;28;20008;-72
2023/03/08 11:53:25;;;;;;;;;;;;;;;1.32;100.00;99349.13;5001813;28;20001;-73
2023/03/08 11:56:02;;;;;;;;;;;;;;;1.26;100.00;99346.00;5005334;28;19961;-72
2023/03/08 11:58:36;;;;;;;;;;;;;;;1.15;100.00;99314.94;5032700;28;20341;-72
2023/03/08 12:01:04;;;;;;;;;;;;;;;1.37;100.00;99322.38;5003161;28;19968;-73
2023/03/08 12:03:39;;;;;;;;;;;;;;;1.45;100.00;99322.75;5027265;28;19928;-72
2023/03/08 12:06:08;;;;;;;;;;;;;;;1.34;100.00;99318.13;5001628;28;19988;-73
2023/03/08 12:08:38;;;;;;;;;;;;;;;1.27;100.00;99337.13;4997432;28;19921;-72
2023/03/08 12:11:05;;;;;;;;;;;;;;;1.41;100.00;99328.31;5005418;28;19921;-73
2023/03/08 12:13:34;;;;;;;;;;;;;;;1.35;100.00;99329.56;4999769;28;19922;-72
2023/03/08 12:16:18;;;;;;;;;;;;;;;1.51;100.00;99310.91;5004573;28;20000;-73
2023/03/08 12:18:52;;;;;;;;;;;;;;;1.63;100.00;99306.63;4996376;28;19926;-72
2023/03/08 12:21:36;;;;;;;;;;;;;;;1.55;100.00;99304.47;5002822;28;19921;-72
2023/03/08 12:24:11;;;;;;;;;;;;;;;1.64;100.00;99303.84;5007576;28;19929;-72
2023/03/08 12:26:38;;;;;;;;;;;;;;;1.76;100.00;99301.38;5008353;28;19953;-72
2023/03/08 12:29:05;;;;;;;;;;;;;;;1.79;100.00;99304.66;5005382;28;20372;-73
2023/03/08 12:31:39;;;;;;;;;;;;;;;1.93;100.00;99306.38;5005230;28;19937;-72
2023/03/08 12:34:13;;;;;;;;;;;;;;;2.00;100.00;99306.81;5007521;28;19929;-72
2023/03/08 12:36:39;;;;;;;;;;;;;;;2.02;100.00;99302.28;5007475;28;19923;-72